createdAt,value
2022-10-11T00:02:03.583Z,4.28
2022-10-11T00:04:30.336Z,3.85
2022-10-11T00:06:56.906Z,4.35
2022-10-11T00:09:23.569Z,4.47
2022-10-11T00:11:50.264Z,3.63
2022-10-11T00:14:16.907Z,4.43
2022-10-11T00:16:44.558Z,4.93
2022-10-11T00:19:11.635Z,4.75
2022-10-11T00:21:38.257Z,5.82
2022-10-11T00:24:22.987Z,4.07
2022-10-11T00:26:49.583Z,4.07
2022-10-11T00:29:16.297Z,4.57
2022-10-11T00:31:42.875Z,5.03
2022-10-11T00:34:12.193Z,6.25
2022-10-11T00:36:38.985Z,5.40
2022-10-11T00:39:05.910Z,6.55
2022-10-11T00:41:32.673Z,5.70
2022-10-11T00:44:10.680Z,5.15
2022-10-11T00:46:37.838Z,4.68
2022-10-11T00:49:19.581Z,4.10
2022-10-11T00:51:51.644Z,4.60
2022-10-11T00:54:23.390Z,4.30
2022-10-11T00:57:03.245Z,4.22
2022-10-11T00:59:34.917Z,3.80
2022-10-11T01:02:01.770Z,3.90
2022-10-11T01:04:28.647Z,3.63
2022-10-11T01:06:56.034Z,4.50
2022-10-11T01:09:22.784Z,3.70
2022-10-11T01:11:52.238Z,3.75
2022-10-11T01:14:33.565Z,3.47
2022-10-11T01:17:09.140Z,3.85
2022-10-11T01:19:35.671Z,3.60
2022-10-11T01:22:46.719Z,3.53
2022-10-11T01:25:20.994Z,4.43
2022-10-11T01:28:02.158Z,4.57
2022-10-11T01:30:34.496Z,6.55
2022-10-11T01:33:17.053Z,7.75
2022-10-11T01:35:48.833Z,7.18
2022-10-11T01:38:35.816Z,7.78
2022-10-11T01:41:18.736Z,7.80
2022-10-11T01:43:46.382Z,7.70
2022-10-11T01:46:13.678Z,7.93
2022-10-11T01:48:51.537Z,8.32
2022-10-11T01:51:22.968Z,7.85
2022-10-11T01:54:07.482Z,7.22
2022-10-11T01:57:01.662Z,7.32
2022-10-11T01:59:41.012Z,6.85
2022-10-11T02:02:38.100Z,7.47
2022-10-11T02:05:21.044Z,7.55
2022-10-11T02:08:09.376Z,7.72
2022-10-11T02:10:50.146Z,8.10
2022-10-11T02:13:38.766Z,7.75
2022-10-11T02:16:11.105Z,7.57
2022-10-11T02:18:47.080Z,6.95
2022-10-11T02:21:18.389Z,5.80
2022-10-11T02:23:53.645Z,5.13
2022-10-11T02:26:22.003Z,6.53
2022-10-11T02:28:51.310Z,6.20
2022-10-11T02:31:19.496Z,5.88
2022-10-11T02:33:56.865Z,7.18
2022-10-11T02:36:31.296Z,6.25
2022-10-11T02:39:04.377Z,5.80
2022-10-11T02:41:39.729Z,5.53
2022-10-11T02:44:32.518Z,6.18
2022-10-11T02:47:02.381Z,7.93
2022-10-11T02:49:31.731Z,8.98
2022-10-11T02:51:59.452Z,7.78
2022-10-11T02:54:26.464Z,8.48
2022-10-11T02:56:53.442Z,7.88
2022-10-11T02:59:20.119Z,7.95
2022-10-11T03:01:46.919Z,7.47
2022-10-11T03:04:14.091Z,7.85
2022-10-11T03:06:43.436Z,7.78
2022-10-11T03:09:10.038Z,10.27
2022-10-11T03:11:36.778Z,10.40
2022-10-11T03:14:03.440Z,9.38
2022-10-11T03:16:29.968Z,9.35
2022-10-11T03:18:56.495Z,9.48
2022-10-11T03:21:25.192Z,8.70
2022-10-11T03:23:51.749Z,9.15
2022-10-11T03:26:18.358Z,8.85
2022-10-11T03:28:45.171Z,8.77
2022-10-11T03:31:12.191Z,10.23
2022-10-11T03:33:38.984Z,11.07
2022-10-11T03:36:06.174Z,11.18
2022-10-11T03:38:33.587Z,10.20
2022-10-11T03:41:01.297Z,12.52
2022-10-11T03:43:28.035Z,11.45
2022-10-11T03:45:54.636Z,12.07
2022-10-11T03:48:21.202Z,13.00
2022-10-11T03:50:48.889Z,13.82
2022-10-11T03:53:15.561Z,11.88
2022-10-11T03:55:42.150Z,13.25
2022-10-11T03:58:09.340Z,14.73
2022-10-11T04:00:36.700Z,12.50
2022-10-11T04:03:06.470Z,13.70
2022-10-11T04:05:33.260Z,13.25
2022-10-11T04:07:59.808Z,13.73
2022-10-11T04:10:26.345Z,12.20
2022-10-11T04:12:52.937Z,13.55
2022-10-11T04:15:19.621Z,12.30
2022-10-11T04:17:46.261Z,12.15
2022-10-11T04:20:12.845Z,12.40
2022-10-11T04:22:39.445Z,11.35
2022-10-11T04:25:07.157Z,12.93
2022-10-11T04:27:34.010Z,12.38
2022-10-11T04:30:00.781Z,12.57
2022-10-11T04:32:27.845Z,12.70
2022-10-11T04:34:54.460Z,13.45
2022-10-11T04:37:21.003Z,12.35
2022-10-11T04:39:47.549Z,9.95
2022-10-11T04:42:14.128Z,10.15
2022-10-11T04:44:40.626Z,11.23
2022-10-11T04:47:07.165Z,11.52
2022-10-11T04:49:33.724Z,11.73
2022-10-11T04:52:00.486Z,10.25
2022-10-11T04:54:27.117Z,12.23
2022-10-11T04:56:53.761Z,11.27
2022-10-11T04:59:20.436Z,9.50
2022-10-11T05:01:47.231Z,10.98
2022-10-11T05:04:13.837Z,11.10
2022-10-11T05:06:40.472Z,11.70
2022-10-11T05:09:07.150Z,10.27
2022-10-11T05:11:33.741Z,12.32
2022-10-11T05:14:00.425Z,13.05
2022-10-11T05:16:27.295Z,15.00
2022-10-11T05:18:53.867Z,14.90
2022-10-11T05:21:25.837Z,13.93
2022-10-11T05:23:53.850Z,14.02
2022-10-11T05:26:20.936Z,13.48
2022-10-11T05:28:48.142Z,15.32
2022-10-11T05:31:15.660Z,12.90
2022-10-11T05:33:42.918Z,12.40
2022-10-11T05:36:10.503Z,12.63
2022-10-11T05:38:38.295Z,12.73
2022-10-11T05:41:05.833Z,11.07
2022-10-11T05:43:32.747Z,11.43
2022-10-11T05:45:59.688Z,10.43
2022-10-11T05:48:28.738Z,10.02
2022-10-11T05:51:03.052Z,9.63
2022-10-11T05:53:30.122Z,9.60
2022-10-11T05:55:56.884Z,9.50
2022-10-11T05:58:23.679Z,9.13
2022-10-11T06:00:50.346Z,12.30
2022-10-11T06:03:17.155Z,14.05
2022-10-11T06:05:43.743Z,12.70
2022-10-11T06:08:10.820Z,11.85
2022-10-11T06:10:38.435Z,9.65
2022-10-11T06:13:05.734Z,10.65
2022-10-11T06:15:32.777Z,12.30
2022-10-11T06:17:59.407Z,11.25
2022-10-11T06:20:26.984Z,11.00
2022-10-11T06:22:53.855Z,11.75
2022-10-11T06:25:20.536Z,11.35
2022-10-11T06:27:47.232Z,41.97
2022-10-11T06:30:14.756Z,35.53
2022-10-11T06:32:41.313Z,11.25
2022-10-11T06:35:08.276Z,11.73
2022-10-11T06:37:34.861Z,11.85
2022-10-11T06:40:01.495Z,10.55
2022-10-11T06:42:28.035Z,10.77
2022-10-11T06:44:54.651Z,12.05
2022-10-11T06:47:21.176Z,12.10
2022-10-11T06:49:50.411Z,11.98
2022-10-11T06:52:16.948Z,12.20
2022-10-11T06:54:45.044Z,11.63
2022-10-11T06:57:12.083Z,10.27
2022-10-11T06:59:38.733Z,11.07
2022-10-11T07:02:05.315Z,16.92
2022-10-11T07:04:33.796Z,11.60
2022-10-11T07:07:00.459Z,10.05
2022-10-11T07:09:27.033Z,8.77
2022-10-11T07:11:53.536Z,9.82
2022-10-11T07:14:20.101Z,10.35
2022-10-11T07:16:46.683Z,11.85
2022-10-11T07:19:13.464Z,10.80
2022-10-11T07:21:40.010Z,13.00
2022-10-11T07:24:06.934Z,12.13
2022-10-11T07:26:38.853Z,12.82
2022-10-11T07:29:08.101Z,11.48
2022-10-11T07:31:37.210Z,11.18
2022-10-11T07:34:03.856Z,10.13
2022-10-11T07:36:30.504Z,8.82
2022-10-11T07:38:57.039Z,8.68
2022-10-11T07:41:23.545Z,9.32
2022-10-11T07:43:51.028Z,9.70
2022-10-11T07:46:18.363Z,9.07
2022-10-11T07:48:45.030Z,10.02
2022-10-11T07:51:18.050Z,10.88
2022-10-11T07:53:56.120Z,8.30
2022-10-11T07:56:31.499Z,9.45
2022-10-11T07:59:00.814Z,8.85
2022-10-11T08:01:28.379Z,10.48
2022-10-11T08:03:57.004Z,9.30
2022-10-11T08:06:29.220Z,8.88
2022-10-11T08:08:57.071Z,8.68
2022-10-11T08:11:31.585Z,8.05
2022-10-11T08:13:58.919Z,8.13
2022-10-11T08:16:25.751Z,7.20
2022-10-11T08:18:54.417Z,7.40
2022-10-11T08:21:21.177Z,6.47
2022-10-11T08:23:47.892Z,7.20
2022-10-11T08:26:14.820Z,6.97
2022-10-11T08:28:41.462Z,6.18
2022-10-11T08:31:10.096Z,6.82
2022-10-11T08:33:36.795Z,6.90
2022-10-11T08:36:06.051Z,6.78
2022-10-11T08:38:34.233Z,6.82
2022-10-11T08:41:02.034Z,6.35
2022-10-11T08:43:56.571Z,6.82
2022-10-11T08:46:28.440Z,6.25
2022-10-11T08:48:55.491Z,6.80
2022-10-11T08:51:30.749Z,6.95
2022-10-11T08:54:07.569Z,7.75
2022-10-11T08:56:37.345Z,9.05
2022-10-11T08:59:12.594Z,7.32
2022-10-11T09:01:53.297Z,7.30
2022-10-11T09:04:20.132Z,7.22
2022-10-11T09:07:11.776Z,7.10
2022-10-11T09:09:59.996Z,7.13
2022-10-11T09:13:00.093Z,6.50
2022-10-11T09:15:48.201Z,6.03
2022-10-11T09:18:33.368Z,6.78
2022-10-11T09:24:47.348Z,6.82
2022-10-11T09:27:57.213Z,5.38
2022-10-11T09:30:19.154Z,6.40
2022-10-11T09:33:11.533Z,6.53
2022-10-11T09:35:42.805Z,6.43
2022-10-11T09:38:32.698Z,6.30
2022-10-11T09:41:09.261Z,6.82
2022-10-11T09:43:36.049Z,6.45
2022-10-11T09:46:03.080Z,7.13
2022-10-11T09:48:41.378Z,7.03
2022-10-11T09:51:28.883Z,7.20
2022-10-11T09:54:01.169Z,6.60
2022-10-11T09:56:33.711Z,7.65
2022-10-11T09:59:18.796Z,6.55
2022-10-11T10:01:45.396Z,6.78
2022-10-11T10:04:16.938Z,6.38
2022-10-11T10:06:43.573Z,6.20
2022-10-11T10:09:33.225Z,6.03
2022-10-11T10:12:12.136Z,6.43
2022-10-11T10:14:54.379Z,6.15
2022-10-11T10:17:24.010Z,6.30
2022-10-11T10:19:54.734Z,6.25
2022-10-11T10:22:22.891Z,6.50
2022-10-11T10:24:51.382Z,7.25
2022-10-11T10:27:29.795Z,7.38
2022-10-11T10:30:00.237Z,7.38
2022-10-11T10:32:56.376Z,7.22
2022-10-11T10:35:30.421Z,7.47
2022-10-11T10:38:26.190Z,8.15
2022-10-11T10:40:58.136Z,7.47
2022-10-11T10:43:33.990Z,8.07
2022-10-11T10:46:18.845Z,8.55
2022-10-11T10:52:26.149Z,9.15
2022-10-11T10:55:12.752Z,9.90
2022-10-11T10:58:03.130Z,8.15
2022-10-11T11:00:41.773Z,8.25
2022-10-11T11:03:24.631Z,7.07
2022-10-11T11:06:06.558Z,8.52
2022-10-11T11:08:42.584Z,7.95
2022-10-11T11:11:36.011Z,7.68
2022-10-11T11:14:19.119Z,8.45
2022-10-11T11:17:15.414Z,8.35
2022-10-11T11:19:44.572Z,8.13
2022-10-11T11:22:35.629Z,9.00
2022-10-11T11:25:14.878Z,8.18
2022-10-11T11:28:10.216Z,8.70
2022-10-11T11:30:52.488Z,8.75
2022-10-11T11:33:51.382Z,8.98
2022-10-11T11:36:27.617Z,8.65
2022-10-11T11:38:59.765Z,8.45
2022-10-11T11:41:31.057Z,9.30
2022-10-11T11:44:31.344Z,8.57
2022-10-11T11:47:12.515Z,8.02
2022-10-11T11:52:20.315Z,9.50
2022-10-11T11:55:03.916Z,9.05
2022-10-11T11:57:52.253Z,9.15
2022-10-11T12:00:25.837Z,10.02
2022-10-11T12:03:11.353Z,9.75
2022-10-11T12:05:37.969Z,9.57
2022-10-11T12:08:24.400Z,10.38
2022-10-11T12:10:50.858Z,10.40
2022-10-11T12:13:37.199Z,10.68
2022-10-11T12:16:03.669Z,10.68
2022-10-11T12:18:31.948Z,10.40
2022-10-11T12:21:21.889Z,12.20
2022-10-11T12:23:53.824Z,10.27
2022-10-11T12:26:29.842Z,11.45
2022-10-11T12:29:02.429Z,10.93
2022-10-11T12:31:36.087Z,11.30
2022-10-11T12:34:08.592Z,11.50
2022-10-11T12:36:38.281Z,11.13
2022-10-11T12:39:20.416Z,11.68
2022-10-11T12:41:50.246Z,10.90
2022-10-11T12:44:22.796Z,9.88
2022-10-11T12:46:55.072Z,10.75
2022-10-11T12:49:21.691Z,10.60
2022-10-11T12:52:20.616Z,11.45
2022-10-11T12:55:25.563Z,11.20
2022-10-11T12:57:59.184Z,9.93
2022-10-11T13:00:30.009Z,10.63
2022-10-11T13:03:04.771Z,8.93
2022-10-11T13:08:05.716Z,9.95
2022-10-11T13:10:42.484Z,10.48
2022-10-11T13:13:27.276Z,10.15
2022-10-11T13:15:56.162Z,10.93
2022-10-11T13:18:25.135Z,11.52
2022-10-11T13:20:52.027Z,10.82
2022-10-11T13:23:38.192Z,11.13
2022-10-11T13:26:05.047Z,11.05
2022-10-11T13:28:36.301Z,11.05
2022-10-11T13:31:04.641Z,12.00
2022-10-11T13:33:35.659Z,10.90
2022-10-11T13:36:06.152Z,10.95
2022-10-11T13:38:36.196Z,11.77
2022-10-11T13:41:09.084Z,11.55
2022-10-11T13:43:36.800Z,12.10
2022-10-11T13:46:05.142Z,11.20
2022-10-11T13:48:32.390Z,12.70
2022-10-11T13:51:14.013Z,11.50
2022-10-11T13:54:04.417Z,11.30
2022-10-11T13:56:52.315Z,11.75
2022-10-11T13:59:22.219Z,11.48
2022-10-11T14:01:52.007Z,12.10
2022-10-11T14:04:18.865Z,11.88
2022-10-11T14:06:51.360Z,11.63
2022-10-11T14:09:26.463Z,11.68
2022-10-11T14:11:53.948Z,12.55
2022-10-11T14:14:34.185Z,12.68
2022-10-11T14:17:15.354Z,11.23
2022-10-11T14:19:43.872Z,11.45
2022-10-11T14:22:14.981Z,10.75
2022-10-11T14:24:42.280Z,12.77
2022-10-11T14:27:17.525Z,13.55
2022-10-11T14:29:55.634Z,13.93
2022-10-11T14:32:34.250Z,12.48
2022-10-11T14:35:01.233Z,12.68
2022-10-11T14:37:27.766Z,12.55
2022-10-11T14:39:54.472Z,12.80
2022-10-11T14:42:21.091Z,11.93
2022-10-11T14:44:47.622Z,12.85
2022-10-11T14:47:16.833Z,12.73
2022-10-11T14:49:43.392Z,12.13
2022-10-11T14:52:13.762Z,12.23
2022-10-11T14:54:40.916Z,12.93
2022-10-11T14:57:07.550Z,12.32
2022-10-11T14:59:37.079Z,13.80
2022-10-11T15:02:06.144Z,13.00
2022-10-11T15:04:33.124Z,14.00
2022-10-11T15:07:00.063Z,13.05
2022-10-11T15:09:26.620Z,12.98
2022-10-11T15:11:54.866Z,13.20
2022-10-11T15:14:25.292Z,13.15
2022-10-11T15:16:52.643Z,12.05
2022-10-11T15:19:22.538Z,12.75
2022-10-11T15:21:49.516Z,12.68
2022-10-11T15:24:16.819Z,11.88
2022-10-11T15:26:44.109Z,12.90
2022-10-11T15:29:11.836Z,13.90
2022-10-11T15:31:39.488Z,14.38
2022-10-11T15:34:06.121Z,13.95
2022-10-11T15:36:32.699Z,13.88
2022-10-11T15:38:59.328Z,14.65
2022-10-11T15:41:28.038Z,15.23
2022-10-11T15:43:54.618Z,15.38
2022-10-11T15:46:23.300Z,14.32
2022-10-11T15:48:51.736Z,14.40
2022-10-11T15:51:18.998Z,16.02
2022-10-11T15:53:45.691Z,14.90
2022-10-11T15:56:18.996Z,14.82
2022-10-11T15:58:45.961Z,14.70
2022-10-11T16:01:16.151Z,14.73
2022-10-11T16:03:43.566Z,15.45
2022-10-11T16:06:10.888Z,15.93
2022-10-11T16:08:38.335Z,19.70
2022-10-11T16:11:06.771Z,17.67
2022-10-11T16:13:33.835Z,15.60
2022-10-11T16:16:02.358Z,15.05
2022-10-11T16:18:34.902Z,16.60
2022-10-11T16:21:08.296Z,16.60
2022-10-11T16:23:35.368Z,14.77
2022-10-11T16:26:08.934Z,13.95
2022-10-11T16:28:36.116Z,14.87
2022-10-11T16:31:10.292Z,15.50
2022-10-11T16:33:45.963Z,13.60
2022-10-11T16:36:36.673Z,13.52
2022-10-11T16:39:12.015Z,14.50
2022-10-11T16:41:38.785Z,15.85
2022-10-11T16:44:05.824Z,16.30
2022-10-11T16:46:33.276Z,17.17
2022-10-11T16:49:00.102Z,16.77
2022-10-11T16:51:27.006Z,16.75
2022-10-11T16:53:53.592Z,18.02
2022-10-11T16:56:24.144Z,16.92
2022-10-11T16:58:53.060Z,15.80
2022-10-11T17:01:20.277Z,15.35
2022-10-11T17:03:47.065Z,16.92
2022-10-11T17:06:13.596Z,17.15
2022-10-11T17:08:40.178Z,17.85
2022-10-11T17:11:06.859Z,16.90
2022-10-11T17:13:33.594Z,17.95
2022-10-11T17:16:00.385Z,18.38
2022-10-11T17:18:27.159Z,17.52
2022-10-11T17:21:03.043Z,17.10
2022-10-11T17:23:29.709Z,18.40
2022-10-11T17:25:56.257Z,18.15
2022-10-11T17:28:22.981Z,19.30
2022-10-11T17:30:57.965Z,19.30
2022-10-11T17:33:26.415Z,18.45
2022-10-11T17:35:54.634Z,19.15
2022-10-11T17:38:22.438Z,17.83
2022-10-11T17:41:02.125Z,19.08
2022-10-11T17:43:28.963Z,18.70
2022-10-11T17:46:00.484Z,18.52
2022-10-11T17:48:28.279Z,19.85
2022-10-11T17:50:55.077Z,19.33
2022-10-11T17:53:21.911Z,17.42
2022-10-11T17:55:54.184Z,18.63
2022-10-11T17:58:20.721Z,18.98
2022-10-11T18:00:47.345Z,17.80
2022-10-11T18:03:14.085Z,17.98
2022-10-11T18:05:41.963Z,18.90
2022-10-11T18:08:09.796Z,17.63
2022-10-11T18:10:37.746Z,18.85
2022-10-11T18:13:06.622Z,19.17
2022-10-11T18:15:33.925Z,18.77
2022-10-11T18:18:00.505Z,19.00
2022-10-11T18:20:27.088Z,18.23
2022-10-11T18:22:54.270Z,18.75
2022-10-11T18:25:20.882Z,17.65
2022-10-11T18:27:47.454Z,17.17
2022-10-11T18:30:14.643Z,16.67
2022-10-11T18:32:41.245Z,17.63
2022-10-11T18:35:08.251Z,18.70
2022-10-11T18:37:34.776Z,19.05
2022-10-11T18:40:01.381Z,18.10
2022-10-11T18:42:28.099Z,16.88
2022-10-11T18:44:55.372Z,17.15
2022-10-11T18:47:21.909Z,16.88
2022-10-11T18:49:48.436Z,17.08
2022-10-11T18:52:15.071Z,17.92
2022-10-11T18:54:41.629Z,17.10
2022-10-11T18:57:08.132Z,16.98
2022-10-11T18:59:34.834Z,18.70
2022-10-11T19:02:01.435Z,18.95
2022-10-11T19:04:28.662Z,18.15
2022-10-11T19:06:55.316Z,17.42
2022-10-11T19:09:24.430Z,18.08
2022-10-11T19:11:55.757Z,18.17
2022-10-11T19:14:31.566Z,19.02
2022-10-11T19:16:58.367Z,18.80
2022-10-11T19:19:27.450Z,18.17
2022-10-11T19:21:54.217Z,18.75
2022-10-11T19:24:23.828Z,19.48
2022-10-11T19:26:51.617Z,21.00
2022-10-11T19:29:21.986Z,19.90
2022-10-11T19:31:54.573Z,19.55
2022-10-11T19:34:23.516Z,19.55
2022-10-11T19:36:50.859Z,20.60
2022-10-11T19:39:18.393Z,20.98
2022-10-11T19:41:45.397Z,19.45
2022-10-11T19:44:13.316Z,19.83
2022-10-11T19:46:55.935Z,20.55
2022-10-11T19:49:25.259Z,19.67
2022-10-11T19:51:53.149Z,18.58
2022-10-11T19:54:19.914Z,18.70
2022-10-11T19:56:46.974Z,18.48
2022-10-11T19:59:14.640Z,18.13
2022-10-11T20:01:42.532Z,17.92
2022-10-11T20:04:22.963Z,17.80
2022-10-11T20:06:58.158Z,17.25
2022-10-11T20:09:29.500Z,19.65
2022-10-11T20:11:57.217Z,17.92
2022-10-11T20:14:24.032Z,19.55
2022-10-11T20:16:50.850Z,15.88
2022-10-11T20:19:17.923Z,18.40
2022-10-11T20:21:45.216Z,17.85
2022-10-11T20:24:12.085Z,17.88
2022-10-11T20:26:39.364Z,17.77
2022-10-11T20:29:07.660Z,17.75
2022-10-11T20:31:38.272Z,16.92
2022-10-11T20:34:07.365Z,17.48
2022-10-11T20:36:36.167Z,16.98
2022-10-11T20:39:04.677Z,17.80
2022-10-11T20:41:34.128Z,17.48
2022-10-11T20:44:02.081Z,20.23
2022-10-11T20:46:31.587Z,17.83
2022-10-11T20:49:02.057Z,18.02
2022-10-11T20:51:31.047Z,17.52
2022-10-11T20:53:58.782Z,17.25
2022-10-11T20:56:25.748Z,16.60
2022-10-11T20:58:56.740Z,17.02
2022-10-11T21:01:33.122Z,16.15
2022-10-11T21:04:00.995Z,17.35
2022-10-11T21:06:29.468Z,16.88
2022-10-11T21:08:56.758Z,16.92
2022-10-11T21:11:41.279Z,17.98
2022-10-11T21:14:07.908Z,16.08
2022-10-11T21:16:34.946Z,17.08
2022-10-11T21:19:02.360Z,18.15
2022-10-11T21:21:29.925Z,17.02
2022-10-11T21:23:58.864Z,17.98
2022-10-11T21:26:26.022Z,18.00
2022-10-11T21:28:52.664Z,16.42
2022-10-11T21:31:21.319Z,17.40
2022-10-11T21:33:48.173Z,17.35
2022-10-11T21:36:18.569Z,18.02
2022-10-11T21:38:45.321Z,18.98
2022-10-11T21:41:16.322Z,16.85
2022-10-11T21:43:43.130Z,19.00
2022-10-11T21:46:15.933Z,19.73
2022-10-11T21:48:42.503Z,17.98
2022-10-11T21:51:26.670Z,16.42
2022-10-11T21:53:55.176Z,17.00
2022-10-11T21:56:21.912Z,16.85
2022-10-11T21:58:49.936Z,18.50
2022-10-11T22:01:17.817Z,16.63
2022-10-11T22:03:44.900Z,18.33
2022-10-11T22:06:12.228Z,18.00
2022-10-11T22:08:39.490Z,16.50
2022-10-11T22:11:06.783Z,17.77
2022-10-11T22:13:34.181Z,18.90
2022-10-11T22:16:09.282Z,17.70
2022-10-11T22:18:36.341Z,19.67
2022-10-11T22:21:08.452Z,19.00
2022-10-11T22:23:35.379Z,18.25
2022-10-11T22:26:04.484Z,17.92
2022-10-11T22:28:31.387Z,18.30
2022-10-11T22:30:58.121Z,17.80
2022-10-11T22:33:24.889Z,17.92
2022-10-11T22:35:59.296Z,18.05
2022-10-11T22:38:26.432Z,16.55
2022-10-11T22:40:53.685Z,15.98
2022-10-11T22:43:20.641Z,16.42
2022-10-11T22:45:47.302Z,16.02
2022-10-11T22:48:13.796Z,16.77
2022-10-11T22:50:40.403Z,17.27
2022-10-11T22:53:07.948Z,16.42
2022-10-11T22:55:35.161Z,18.23
2022-10-11T22:58:01.672Z,17.60
2022-10-11T23:00:28.239Z,16.90
2022-10-11T23:02:54.813Z,16.25
2022-10-11T23:05:21.520Z,16.67
2022-10-11T23:07:48.340Z,16.35
2022-10-11T23:10:15.705Z,17.45
2022-10-11T23:12:42.380Z,16.30
2022-10-11T23:15:10.213Z,16.92
2022-10-11T23:17:36.913Z,16.20
2022-10-11T23:20:04.947Z,15.15
2022-10-11T23:22:31.496Z,15.98
2022-10-11T23:24:58.104Z,16.83
2022-10-11T23:27:24.674Z,17.42
2022-10-11T23:29:51.201Z,17.40
2022-10-11T23:32:17.952Z,16.40
2022-10-11T23:34:44.503Z,16.65
2022-10-11T23:37:11.092Z,15.40
2022-10-11T23:39:37.610Z,15.05
2022-10-11T23:42:04.324Z,15.25
2022-10-11T23:44:30.897Z,14.70
2022-10-11T23:46:57.435Z,15.15
2022-10-11T23:49:24.022Z,15.68
2022-10-11T23:51:50.584Z,16.88
2022-10-11T23:54:17.070Z,17.35
2022-10-11T23:56:43.595Z,16.60
2022-10-11T23:59:10.133Z,17.30
